Time;durP1;ratioP1;P1;durP2;ratioP2;P2;SDS_P1;SDS_P2;PMS_P1;PMS_P2;Temp;Humidity;BMP_temperature;BMP_pressure;BME280_temperature;BME280_humidity;BME280_pressure;Samples;Min_cycle;Max_cycle;Signal;HPM_P1;HPM_P2
2022/05/03 00:00:06;;;;;;;0.00;0.00;;;14.00;69.40;;;;;;4181645;28;20049;-74
2022/05/03 00:02:46;;;;;;;0.00;0.00;;;14.00;70.10;;;;;;4167819;28;20088;-75
2022/05/03 00:05:44;;;;;;;0.00;0.00;;;13.90;70.50;;;;;;4166927;28;20080;-73
2022/05/03 00:08:27;;;;;;;0.00;0.00;;;13.90;70.60;;;;;;4167895;28;20373;-74
2022/05/03 00:11:04;;;;;;;0.00;0.00;;;14.00;70.60;;;;;;4167546;28;20508;-75
2022/05/03 00:13:51;;;;;;;0.00;0.00;;;14.00;70.60;;;;;;4182388;28;20064;-73
2022/05/03 00:16:21;;;;;;;0.00;0.00;;;14.00;70.80;;;;;;4182114;28;20175;-76
2022/05/03 00:18:56;;;;;;;0.00;0.00;;;14.00;70.70;;;;;;4182147;28;20045;-74
2022/05/03 00:21:23;;;;;;;0.00;0.00;;;14.00;71.00;;;;;;4154080;28;20520;-74
2022/05/03 00:23:46;;;;;;;0.00;0.00;;;14.00;71.10;;;;;;4167483;28;20452;-74
2022/05/03 00:26:13;;;;;;;0.00;0.00;;;14.00;71.10;;;;;;4167728;28;20045;-72
2022/05/03 00:28:45;;;;;;;0.00;0.00;;;14.10;71.30;;;;;;4167572;28;20092;-73
2022/05/03 00:31:20;;;;;;;0.00;0.00;;;14.00;71.20;;;;;;4168477;28;20045;-73
2022/05/03 00:33:48;;;;;;;0.00;0.00;;;14.00;71.50;;;;;;4181964;28;20056;-75
2022/05/03 00:36:11;;;;;;;0.00;0.00;;;13.90;72.00;;;;;;4167678;28;20045;-75
2022/05/03 00:38:34;;;;;;;0.00;0.00;;;13.70;72.90;;;;;;4167191;28;20037;-76
2022/05/03 00:41:09;;;;;;;0.00;0.00;;;13.60;73.40;;;;;;4168129;28;20045;-71
2022/05/03 00:43:42;;;;;;;0.00;0.00;;;13.70;73.60;;;;;;4167508;28;20081;-74
2022/05/03 00:46:16;;;;;;;0.00;0.00;;;13.70;73.50;;;;;;4167433;28;20044;-73
2022/05/03 00:48:44;;;;;;;0.00;0.00;;;13.80;73.50;;;;;;4181811;28;20102;-73
2022/05/03 00:51:18;;;;;;;0.00;0.00;;;13.80;73.50;;;;;;4167374;28;20121;-75
2022/05/03 00:54:05;;;;;;;0.00;0.00;;;13.90;73.40;;;;;;4153955;28;20057;-72
2022/05/03 00:56:51;;;;;;;0.00;0.00;;;13.90;73.30;;;;;;4181940;28;20041;-73
2022/05/03 00:59:47;;;;;;;0.00;0.00;;;13.80;73.40;;;;;;4180591;28;20069;-73
2022/05/03 01:02:14;;;;;;;0.00;0.00;;;13.80;73.60;;;;;;4180957;28;20080;-73
2022/05/03 01:04:52;;;;;;;0.00;0.00;;;13.70;73.70;;;;;;4154138;28;20049;-74
2022/05/03 01:07:35;;;;;;;0.00;0.00;;;13.70;74.30;;;;;;4181940;28;20084;-71
2022/05/03 01:10:26;;;;;;;0.00;0.00;;;13.70;74.40;;;;;;4181718;28;20045;-74
2022/05/03 01:13:03;;;;;;;0.00;0.00;;;13.70;74.30;;;;;;4181758;28;20065;-73
2022/05/03 01:15:37;;;;;;;0.00;0.00;;;13.70;74.10;;;;;;4180835;28;20093;-75
2022/05/03 01:18:20;;;;;;;0.00;0.00;;;13.70;74.40;;;;;;4170127;28;20057;-74
2022/05/03 01:21:05;;;;;;;0.00;0.00;;;13.60;74.50;;;;;;4170269;28;20072;-75
2022/05/03 01:23:34;;;;;;;0.00;0.00;;;13.60;74.70;;;;;;4170032;28;20177;-75
2022/05/03 01:26:36;;;;;;;0.00;0.00;;;13.60;74.80;;;;;;4170311;28;20088;-75
2022/05/03 01:29:13;;;;;;;0.00;0.00;;;13.60;75.00;;;;;;4170135;28;20081;-76
2022/05/03 01:31:51;;;;;;;0.00;0.00;;;13.70;75.00;;;;;;4184243;28;20087;-75
2022/05/03 01:34:22;;;;;;;0.00;0.00;;;13.70;75.20;;;;;;4169800;28;20439;-73
2022/05/03 01:37:06;;;;;;;0.00;0.00;;;13.70;75.40;;;;;;4170279;28;20075;-72
2022/05/03 01:39:53;;;;;;;0.00;0.00;;;13.70;75.90;;;;;;4184014;28;20099;-73
2022/05/03 01:42:33;;;;;;;0.00;0.00;;;13.70;75.50;;;;;;4162262;28;20160;-73
2022/05/03 01:45:10;;;;;;;0.00;0.00;;;13.60;75.50;;;;;;4170018;28;20061;-75
2022/05/03 01:47:43;;;;;;;0.00;0.00;;;13.70;75.70;;;;;;4169758;28;20057;-74
2022/05/03 01:50:20;;;;;;;0.00;0.00;;;13.70;75.80;;;;;;4169599;28;20136;-75
2022/05/03 01:53:43;;;;;;;0.00;0.00;;;13.60;76.10;;;;;;4170010;28;20472;-75
2022/05/03 01:57:18;;;;;;;0.00;0.00;;;13.60;76.50;;;;;;4104573;28;20086;-75
2022/05/03 01:59:55;;;;;;;;;;;13.40;76.70;;;;;;4054862;29;20061;-74
2022/05/03 02:02:35;;;;;;;0.00;0.00;;;13.40;76.60;;;;;;4043751;29;19924;-73
2022/05/03 02:05:09;;;;;;;0.00;0.00;;;13.50;76.70;;;;;;4069989;29;20084;-74
2022/05/03 02:07:48;;;;;;;0.00;0.00;;;13.50;76.70;;;;;;4043648;29;20049;-73
2022/05/03 02:10:33;;;;;;;0.00;0.00;;;13.40;76.80;;;;;;4056586;29;20128;-74
2022/05/03 02:13:02;;;;;;;0.00;0.00;;;13.50;77.10;;;;;;4056751;29;20044;-72
2022/05/03 02:15:39;;;;;;;0.00;0.00;;;13.40;77.40;;;;;;4056687;29;20195;-76
2022/05/03 02:18:07;;;;;;;0.00;0.00;;;13.50;78.20;;;;;;4056745;29;20052;-74
2022/05/03 02:21:23;;;;;;;0.00;0.00;;;13.50;78.00;;;;;;4056673;29;20147;-75
2022/05/03 02:24:13;;;;;;;0.00;0.00;;;13.50;78.20;;;;;;4054371;29;20052;-76
2022/05/03 02:27:11;;;;;;;0.00;0.00;;;13.50;78.30;;;;;;4077264;29;20611;-75
2022/05/03 02:29:48;;;;;;;0.00;0.00;;;13.60;78.40;;;;;;4097398;28;20051;-73
2022/05/03 02:32:15;;;;;;;0.00;0.00;;;13.60;78.70;;;;;;4138693;28;20050;-72
2022/05/03 02:34:58;;;;;;;0.00;0.00;;;13.50;78.70;;;;;;4134318;28;20088;-75
2022/05/03 02:37:29;;;;;;;0.00;0.00;;;13.60;78.90;;;;;;4139132;28;20050;-74
2022/05/03 02:40:11;;;;;;;0.00;0.00;;;13.60;79.00;;;;;;4152918;28;20550;-74
2022/05/03 02:42:36;;;;;;;0.00;0.00;;;13.60;79.20;;;;;;4166438;28;20544;-77
2022/05/03 02:45:02;;;;;;;0.00;0.00;;;13.50;79.50;;;;;;4139346;28;20126;-74
2022/05/03 02:47:33;;;;;;;0.00;0.00;;;13.50;79.60;;;;;;4139161;28;20054;-74
2022/05/03 02:50:05;;;;;;;0.00;0.00;;;13.60;79.70;;;;;;4152481;28;20049;-73
2022/05/03 02:52:42;;;;;;;0.00;0.00;;;13.60;79.70;;;;;;4138784;28;20046;-76
2022/05/03 02:55:23;;;;;;;0.00;0.00;;;13.50;79.60;;;;;;4138701;28;20057;-74
2022/05/03 02:58:19;;;;;;;0.00;0.00;;;13.50;79.80;;;;;;4152541;28;20046;-74
2022/05/03 03:01:49;;;;;;;0.00;0.00;;;13.40;79.80;;;;;;4168776;28;20053;-72
2022/05/03 03:04:50;;;;;;;0.00;0.00;;;13.50;79.80;;;;;;4076517;28;20086;-77
2022/05/03 03:07:21;;;;;;;0.00;0.00;;;13.40;79.80;;;;;;4090128;28;20051;-73
2022/05/03 03:09:56;;;;;;;0.00;0.00;;;13.40;80.10;;;;;;4116645;28;20383;-71
2022/05/03 03:12:42;;;;;;;0.00;0.00;;;13.30;80.20;;;;;;4103004;28;20051;-75
2022/05/03 03:15:11;;;;;;;0.00;0.00;;;13.40;80.40;;;;;;4116542;28;20110;-74
2022/05/03 03:17:40;;;;;;;0.00;0.00;;;13.30;80.40;;;;;;4102984;28;20047;-73
2022/05/03 03:20:05;;;;;;;0.00;0.00;;;13.30;80.50;;;;;;4103014;28;20063;-77
2022/05/03 03:22:35;;;;;;;0.00;0.00;;;13.30;80.50;;;;;;4103020;28;20047;-73
2022/05/03 03:25:02;;;;;;;0.00;0.00;;;13.30;80.60;;;;;;4116348;28;20130;-71
2022/05/03 03:27:27;;;;;;;0.00;0.00;;;13.30;80.60;;;;;;4102684;28;20118;-73
2022/05/03 03:29:56;;;;;;;0.00;0.00;;;13.30;80.70;;;;;;4116452;28;20150;-73
2022/05/03 03:32:20;;;;;;;0.00;0.00;;;13.30;80.90;;;;;;4108702;28;20696;-74
2022/05/03 03:34:47;;;;;;;0.00;0.00;;;13.30;80.90;;;;;;4108590;28;20058;-74
2022/05/03 03:37:11;;;;;;;0.00;0.00;;;13.30;81.10;;;;;;4168409;28;20087;-75
2022/05/03 03:39:33;;;;;;;0.00;0.00;;;13.30;81.10;;;;;;4162143;28;20045;-73
2022/05/03 03:42:06;;;;;;;0.00;0.00;;;13.30;81.20;;;;;;4168328;28;20045;-71
2022/05/03 03:44:31;;;;;;;0.00;0.00;;;13.30;81.20;;;;;;4168025;28;20128;-74
2022/05/03 03:46:58;;;;;;;0.00;0.00;;;13.40;81.20;;;;;;4182280;28;20191;-73
2022/05/03 03:49:23;;;;;;;0.00;0.00;;;13.40;81.20;;;;;;4181990;28;20094;-76
2022/05/03 03:51:45;;;;;;;0.00;0.00;;;13.30;81.30;;;;;;4181930;28;20087;-73
2022/05/03 03:54:10;;;;;;;0.00;0.00;;;13.40;81.30;;;;;;4154460;28;20116;-72
2022/05/03 03:56:33;;;;;;;0.00;0.00;;;13.40;81.20;;;;;;4181730;28;20045;-74
2022/05/03 03:58:58;;;;;;;0.00;0.00;;;13.40;81.80;;;;;;4181765;28;20053;-72
2022/05/03 04:01:22;;;;;;;0.00;0.00;;;13.40;81.30;;;;;;4167914;28;20157;-75
2022/05/03 04:03:49;;;;;;;0.00;0.00;;;13.40;81.40;;;;;;4168100;28;20133;-73
2022/05/03 04:06:11;;;;;;;0.00;0.00;;;13.40;81.40;;;;;;4167633;28;20092;-74
2022/05/03 04:08:35;;;;;;;0.00;0.00;;;13.40;81.40;;;;;;4154254;28;20536;-74
2022/05/03 04:11:13;;;;;;;0.00;0.00;;;13.40;81.50;;;;;;4140463;28;20089;-73
2022/05/03 04:13:36;;;;;;;0.00;0.00;;;13.50;81.50;;;;;;4167941;28;20048;-77
2022/05/03 04:15:58;;;;;;;0.00;0.00;;;13.50;81.60;;;;;;4181489;28;20395;-74
2022/05/03 04:18:20;;;;;;;0.00;0.00;;;13.50;81.60;;;;;;4168007;28;20098;-77
2022/05/03 04:20:42;;;;;;;0.00;0.00;;;13.50;81.70;;;;;;4181925;28;20049;-73
2022/05/03 04:23:04;;;;;;;0.00;0.00;;;13.40;81.80;;;;;;4167586;28;20037;-72
2022/05/03 04:25:26;;;;;;;0.00;0.00;;;13.40;82.00;;;;;;4181612;28;20545;-74
2022/05/03 04:27:55;;;;;;;0.00;0.00;;;13.40;82.30;;;;;;4167487;28;20076;-72
2022/05/03 04:30:20;;;;;;;0.00;0.00;;;13.30;82.50;;;;;;4153781;28;20073;-74
2022/05/03 04:32:43;;;;;;;0.00;0.00;;;13.30;82.60;;;;;;4181509;28;20455;-76
2022/05/03 04:35:08;;;;;;;0.00;0.00;;;13.30;82.80;;;;;;4153802;28;20050;-74
2022/05/03 04:37:32;;;;;;;0.00;0.00;;;13.30;83.00;;;;;;4167657;28;20057;-73
2022/05/03 04:39:54;;;;;;;0.00;0.00;;;13.30;83.10;;;;;;4154015;28;20388;-74
2022/05/03 04:42:19;;;;;;;0.00;0.00;;;13.40;83.30;;;;;;4154143;28;20045;-75
2022/05/03 04:44:43;;;;;;;0.00;0.00;;;13.30;83.50;;;;;;4153776;28;20046;-73
2022/05/03 04:47:12;;;;;;;0.00;0.00;;;13.30;83.90;;;;;;4153836;28;20049;-73
2022/05/03 04:49:35;;;;;;;0.00;0.00;;;13.30;84.10;;;;;;4153948;28;20148;-71
2022/05/03 04:51:57;;;;;;;0.00;0.00;;;13.30;84.20;;;;;;4155082;28;20361;-74
2022/05/03 04:54:21;;;;;;;0.00;0.00;;;13.40;84.80;;;;;;4184843;28;20056;-74
2022/05/03 04:56:50;;;;;;;0.00;0.00;;;13.50;84.20;;;;;;4157435;28;20121;-73
2022/05/03 04:59:12;;;;;;;0.00;0.00;;;13.60;84.20;;;;;;4170536;28;20056;-72
2022/05/03 05:01:37;;;;;;;0.00;0.00;;;13.50;84.40;;;;;;4156894;28;20056;-72
2022/05/03 05:04:01;;;;;;;0.00;0.00;;;13.50;84.60;;;;;;4157060;28;20547;-70
2022/05/03 05:06:28;;;;;;;0.00;0.00;;;13.50;84.80;;;;;;4150410;28;20572;-72
2022/05/03 05:08:50;;;;;;;0.00;0.00;;;13.60;84.80;;;;;;4157188;28;20080;-73
2022/05/03 05:11:14;;;;;;;0.00;0.00;;;13.70;84.80;;;;;;4157092;28;20041;-73
2022/05/03 05:13:39;;;;;;;0.00;0.00;;;13.70;84.80;;;;;;4156621;28;20052;-74
2022/05/03 05:16:05;;;;;;;0.00;0.00;;;13.70;85.20;;;;;;4170202;28;20128;-75
2022/05/03 05:18:27;;;;;;;0.00;0.00;;;13.70;85.30;;;;;;4183917;28;20038;-72
2022/05/03 05:20:52;;;;;;;0.00;0.00;;;13.70;85.10;;;;;;4156695;28;20037;-75
2022/05/03 05:23:18;;;;;;;0.00;0.00;;;13.80;85.20;;;;;;4184052;28;20087;-73
2022/05/03 05:25:47;;;;;;;0.00;0.00;;;13.90;85.10;;;;;;4184522;28;20044;-74
2022/05/03 05:28:09;;;;;;;0.00;0.00;;;13.80;85.10;;;;;;4184216;28;20137;-73
2022/05/03 05:30:31;;;;;;;0.00;0.00;;;13.90;85.20;;;;;;4184177;28;20490;-72
2022/05/03 05:32:55;;;;;;;0.00;0.00;;;13.80;85.60;;;;;;4156472;28;20127;-72
2022/05/03 05:35:22;;;;;;;0.00;0.00;;;13.70;86.10;;;;;;4161198;28;20041;-73
2022/05/03 05:37:46;;;;;;;0.00;0.00;;;13.80;86.20;;;;;;4170131;28;20045;-73
2022/05/03 05:40:11;;;;;;;0.00;0.00;;;13.90;86.20;;;;;;4156125;28;20053;-69
2022/05/03 05:42:35;;;;;;;0.00;0.00;;;13.90;86.10;;;;;;4155997;28;20046;-72
2022/05/03 05:45:04;;;;;;;0.00;0.00;;;14.00;85.80;;;;;;4183982;28;20471;-72
2022/05/03 05:47:29;;;;;;;0.00;0.00;;;14.00;85.80;;;;;;4183529;28;20045;-71
2022/05/03 05:49:53;;;;;;;0.00;0.00;;;13.90;86.00;;;;;;4183606;28;20040;-74
2022/05/03 05:55:02;;;;;;;0.00;0.00;;;13.80;86.20;;;;;;4168871;28;20111;-72
2022/05/03 05:57:24;;;;;;;0.00;0.00;;;13.70;86.70;;;;;;4169847;28;20514;-71
2022/05/03 05:59:48;;;;;;;0.00;0.00;;;13.60;87.10;;;;;;4156110;28;20053;-75
2022/05/03 06:02:11;;;;;;;0.00;0.00;;;13.70;87.00;;;;;;4169849;28;20620;-71
2022/05/03 06:04:36;;;;;;;0.00;0.00;;;13.80;86.70;;;;;;4155651;28;20053;-72
2022/05/03 06:06:58;;;;;;;0.00;0.00;;;13.90;86.20;;;;;;4155580;28;20097;-74
2022/05/03 06:09:20;;;;;;;0.00;0.00;;;14.00;85.50;;;;;;4142141;28;20042;-72
2022/05/03 06:11:42;;;;;;;0.00;0.00;;;14.00;85.10;;;;;;4155807;28;20087;-74
2022/05/03 06:14:05;;;;;;;0.00;0.00;;;14.10;84.70;;;;;;4169351;28;20087;-69
2022/05/03 06:16:28;;;;;;;0.00;0.00;;;14.00;84.70;;;;;;4155437;28;20374;-74
2022/05/03 06:18:50;;;;;;;0.00;0.00;;;14.00;84.60;;;;;;4169049;28;20099;-74
2022/05/03 06:21:14;;;;;;;0.00;0.00;;;14.00;84.60;;;;;;4155682;28;20045;-73
2022/05/03 06:23:39;;;;;;;0.00;0.00;;;14.10;84.60;;;;;;4169203;28;20037;-72
2022/05/03 06:26:06;;;;;;;0.00;0.00;;;14.10;84.90;;;;;;4155609;28;20045;-72
2022/05/03 06:28:39;;;;;;;0.00;0.00;;;14.20;84.80;;;;;;4166499;28;20084;-72
2022/05/03 06:31:01;;;;;;;0.00;0.00;;;14.30;84.70;;;;;;4172033;28;20061;-74
2022/05/03 06:33:23;;;;;;;0.00;0.00;;;14.40;84.20;;;;;;4179582;28;20048;-73
2022/05/03 06:35:48;;;;;;;0.00;0.00;;;14.30;84.10;;;;;;4152600;28;20378;-73
2022/05/03 06:38:10;;;;;;;0.00;0.00;;;14.30;84.20;;;;;;4181564;28;20067;-74
2022/05/03 06:40:32;;;;;;;0.00;0.00;;;14.40;84.30;;;;;;4168969;28;20053;-75
2022/05/03 06:42:56;;;;;;;0.00;0.00;;;14.40;84.20;;;;;;4168849;28;20354;-74
2022/05/03 06:45:21;;;;;;;0.00;0.00;;;14.50;84.10;;;;;;4182715;28;20765;-74
2022/05/03 06:47:44;;;;;;;0.00;0.00;;;14.60;84.10;;;;;;4157681;28;20038;-75
2022/05/03 06:50:10;;;;;;;0.00;0.00;;;14.70;83.70;;;;;;4166165;28;20061;-73
2022/05/03 06:52:33;;;;;;;0.00;0.00;;;14.70;83.50;;;;;;4166321;28;20511;-74
2022/05/03 06:54:57;;;;;;;0.00;0.00;;;14.80;83.40;;;;;;4152378;28;20056;-74
2022/05/03 06:57:21;;;;;;;0.00;0.00;;;14.90;83.20;;;;;;4131184;28;20059;-73
2022/05/03 06:59:45;;;;;;;0.00;0.00;;;15.00;83.10;;;;;;4138348;28;20059;-72
2022/05/03 07:02:11;;;;;;;0.00;0.00;;;15.00;83.10;;;;;;4152532;28;20053;-71
2022/05/03 07:04:33;;;;;;;0.00;0.00;;;15.00;82.90;;;;;;4161718;28;20041;-73
2022/05/03 07:06:55;;;;;;;0.00;0.00;;;15.10;82.70;;;;;;4154724;28;20054;-77
2022/05/03 07:09:16;;;;;;;0.00;0.00;;;15.00;82.60;;;;;;4147130;28;20053;-72
2022/05/03 07:11:38;;;;;;;0.00;0.00;;;15.00;82.90;;;;;;4168732;28;20049;-72
2022/05/03 07:14:03;;;;;;;0.00;0.00;;;15.00;82.90;;;;;;4168086;28;20034;-72
2022/05/03 07:16:25;;;;;;;0.00;0.00;;;15.00;83.00;;;;;;4154766;28;20609;-73
2022/05/03 07:24:24;;;;;;;0.00;0.00;;;14.90;83.40;;;;;;4154435;28;20050;-72
2022/05/03 07:26:48;;;;;;;0.00;0.00;;;15.00;83.40;;;;;;4168898;28;20140;-71
2022/05/03 07:29:10;;;;;;;0.00;0.00;;;15.10;83.10;;;;;;4168361;28;20050;-75
2022/05/03 07:31:35;;;;;;;0.00;0.00;;;15.10;82.90;;;;;;4182150;28;20110;-73
2022/05/03 07:33:59;;;;;;;0.00;0.00;;;15.10;83.00;;;;;;4181989;28;20521;-73
2022/05/03 07:36:23;;;;;;;0.00;0.00;;;15.10;82.90;;;;;;4167813;28;20136;-74
2022/05/03 07:38:48;;;;;;;0.00;0.00;;;15.20;82.70;;;;;;4177902;28;20048;-73
2022/05/03 07:41:10;;;;;;;0.00;0.00;;;15.20;82.60;;;;;;4184177;28;20065;-74
2022/05/03 07:43:32;;;;;;;0.00;0.00;;;15.20;82.50;;;;;;4164450;28;20115;-71
2022/05/03 07:45:56;;;;;;;0.00;0.00;;;15.20;82.50;;;;;;4184315;28;20558;-72
2022/05/03 07:48:24;;;;;;;0.00;0.00;;;15.30;81.90;;;;;;4183970;28;20447;-72
2022/05/03 07:50:46;;;;;;;0.00;0.00;;;15.30;82.00;;;;;;4170428;28;20562;-73
2022/05/03 07:53:08;;;;;;;0.00;0.00;;;15.30;82.10;;;;;;4184274;28;20092;-74
2022/05/03 07:55:30;;;;;;;0.00;0.00;;;15.40;81.50;;;;;;4184122;28;20095;-72
2022/05/03 07:57:54;;;;;;;0.00;0.00;;;15.30;80.80;;;;;;4184085;28;20697;-71
2022/05/03 08:00:19;;;;;;;0.00;0.00;;;15.20;81.40;;;;;;4183660;28;20068;-72
2022/05/03 08:02:46;;;;;;;0.00;0.00;;;15.20;81.40;;;;;;4183945;28;20136;-73
2022/05/03 08:05:10;;;;;;;0.00;0.00;;;15.40;81.00;;;;;;4172581;28;20053;-73
2022/05/03 08:07:35;;;;;;;0.00;0.00;;;15.40;81.40;;;;;;4167662;28;20053;-72
2022/05/03 08:09:59;;;;;;;0.00;0.00;;;15.70;80.60;;;;;;4167307;28;20107;-74
2022/05/03 08:12:24;;;;;;;0.00;0.00;;;15.90;79.80;;;;;;4167485;28;20080;-73
2022/05/03 08:14:46;;;;;;;0.00;0.00;;;16.00;79.70;;;;;;4153399;28;20073;-73
2022/05/03 08:17:10;;;;;;;0.00;0.00;;;15.90;79.40;;;;;;4153311;28;20049;-71
2022/05/03 08:19:33;;;;;;;0.00;0.00;;;15.80;79.60;;;;;;4153472;28;20099;-73
2022/05/03 08:21:56;;;;;;;0.00;0.00;;;15.70;79.70;;;;;;4167692;28;20076;-72
2022/05/03 08:24:19;;;;;;;0.00;0.00;;;15.80;79.70;;;;;;4153969;28;20417;-71
2022/05/03 08:26:42;;;;;;;0.00;0.00;;;16.00;79.40;;;;;;4153388;28;20112;-72
2022/05/03 08:29:04;;;;;;;0.00;0.00;;;16.00;79.10;;;;;;4154000;28;20112;-70
2022/05/03 08:31:27;;;;;;;0.00;0.00;;;15.90;78.90;;;;;;4153951;28;20058;-71
2022/05/03 08:33:49;;;;;;;0.00;0.00;;;15.80;79.50;;;;;;4139751;28;20077;-73
2022/05/03 08:36:11;;;;;;;0.00;0.00;;;15.90;79.40;;;;;;4167128;28;20045;-73
2022/05/03 08:44:00;;;;;;;0.00;0.00;;;16.10;78.70;;;;;;4177197;28;20052;-72
2022/05/03 08:46:27;;;;;;;0.00;0.00;;;16.00;78.90;;;;;;4183363;28;20057;-72
2022/05/03 08:48:53;;;;;;;0.00;0.00;;;15.90;78.00;;;;;;4183753;28;20060;-73
2022/05/03 08:51:22;;;;;;;0.00;0.00;;;16.20;78.20;;;;;;4184153;28;20106;-74
2022/05/03 08:53:44;;;;;;;0.00;0.00;;;16.40;77.20;;;;;;4169722;28;20729;-74
2022/05/03 08:56:10;;;;;;;0.00;0.00;;;16.50;77.30;;;;;;4183224;28;20056;-72
2022/05/03 08:58:35;;;;;;;0.00;0.00;;;16.70;77.20;;;;;;4169910;28;20052;-73
2022/05/03 09:01:03;;;;;;;0.00;0.00;;;17.00;76.80;;;;;;4183814;28;20040;-75
2022/05/03 09:03:28;;;;;;;0.00;0.00;;;16.90;76.00;;;;;;4183507;28;20198;-74
2022/05/03 09:05:52;;;;;;;0.00;0.00;;;16.90;76.70;;;;;;4183570;28;20377;-73
2022/05/03 09:08:23;;;;;;;0.00;0.00;;;17.20;76.70;;;;;;4183412;28;20079;-74
2022/05/03 09:10:47;;;;;;;0.00;0.00;;;17.10;76.20;;;;;;4184483;28;20095;-74
2022/05/03 09:13:33;;;;;;;0.00;0.00;;;17.20;76.30;;;;;;4182966;28;20063;-72
2022/05/03 09:16:18;;;;;;;0.00;0.00;;;17.30;73.70;;;;;;4183270;28;20492;-71
2022/05/03 09:18:41;;;;;;;0.00;0.00;;;17.10;73.60;;;;;;4178223;28;19960;-71
2022/05/03 09:26:21;;;;;;;0.00;0.00;;;17.30;73.90;;;;;;4170049;28;20387;-73
2022/05/03 09:29:03;;;;;;;0.00;0.00;;;17.30;73.10;;;;;;4183324;28;20037;-70
2022/05/03 09:31:34;;;;;;;;;;;17.50;74.00;;;;;;4169995;28;20076;-74
2022/05/03 09:34:04;;;;;;;0.00;0.00;;;17.50;73.40;;;;;;4183005;28;20347;-73
2022/05/03 09:36:26;;;;;;;0.00;0.00;;;17.50;73.20;;;;;;4136879;28;20045;-74
2022/05/03 09:39:08;;;;;;;0.00;0.00;;;17.40;73.10;;;;;;4163634;28;20048;-73
2022/05/03 09:41:30;;;;;;;0.00;0.00;;;17.40;72.20;;;;;;4169784;28;20033;-72
2022/05/03 09:44:04;;;;;;;0.00;0.00;;;17.40;72.40;;;;;;4192907;28;20132;-72
2022/05/03 09:46:30;;;;;;;0.00;0.00;;;17.30;72.60;;;;;;4183596;28;20057;-73
2022/05/03 09:48:55;;;;;;;0.00;0.00;;;17.50;72.90;;;;;;4169377;28;20056;-73
2022/05/03 09:51:17;;;;;;;0.00;0.00;;;17.70;72.90;;;;;;4183684;28;20056;-72
2022/05/03 09:53:42;;;;;;;0.00;0.00;;;17.80;71.20;;;;;;4169762;28;20079;-72
2022/05/03 09:56:11;;;;;;;0.00;0.00;;;17.70;71.20;;;;;;4169511;28;20092;-74
2022/05/03 09:58:33;;;;;;;0.00;0.00;;;17.80;70.70;;;;;;4169557;28;20419;-71
2022/05/03 10:00:56;;;;;;;0.00;0.00;;;17.70;70.90;;;;;;4183372;28;20140;-73
2022/05/03 10:03:22;;;;;;;0.00;0.00;;;17.40;71.50;;;;;;4156017;28;20045;-72
2022/05/03 10:05:45;;;;;;;0.00;0.00;;;17.30;71.10;;;;;;4170590;28;20049;-70
2022/05/03 10:08:16;;;;;;;0.00;0.00;;;17.50;71.00;;;;;;4172985;28;20060;-68
2022/05/03 10:10:44;;;;;;;0.00;0.00;;;17.60;70.50;;;;;;4172302;28;20115;-70
2022/05/03 10:13:08;;;;;;;0.00;0.00;;;17.80;70.30;;;;;;4172455;28;20072;-70
2022/05/03 10:21:28;;;;;;;0.00;0.00;;;18.10;67.90;;;;;;4158032;28;20064;-69
2022/05/03 10:24:12;;;;;;;0.00;0.00;;;18.00;67.60;;;;;;4171768;28;20415;-68
2022/05/03 10:26:52;;;;;;;0.00;0.00;;;18.10;68.60;;;;;;4185361;28;20091;-69
2022/05/03 10:29:15;;;;;;;0.00;0.00;;;18.20;67.40;;;;;;4158579;28;20607;-70
2022/05/03 10:31:59;;;;;;;0.00;0.00;;;18.40;67.60;;;;;;4157506;28;20034;-69
2022/05/03 10:34:42;;;;;;;0.00;0.00;;;18.30;67.30;;;;;;4156587;28;20137;-74
2022/05/03 10:37:04;;;;;;;0.00;0.00;;;18.50;67.20;;;;;;4170383;28;20049;-72
2022/05/03 10:39:29;;;;;;;0.00;0.00;;;18.60;67.40;;;;;;4168483;28;20069;-73
2022/05/03 10:41:54;;;;;;;0.00;0.00;;;18.60;68.00;;;;;;4169962;28;20133;-70
2022/05/03 10:44:39;;;;;;;0.00;0.00;;;18.70;67.90;;;;;;4156446;28;20054;-71
2022/05/03 10:47:10;;;;;;;0.00;0.00;;;19.00;67.70;;;;;;4167611;28;20045;-71
2022/05/03 10:49:35;;;;;;;0.00;0.00;;;19.00;67.40;;;;;;4164599;28;20041;-73
2022/05/03 10:51:57;;;;;;;0.00;0.00;;;19.00;67.90;;;;;;4152355;28;20774;-75
2022/05/03 10:54:20;;;;;;;0.00;0.00;;;19.10;67.70;;;;;;4152174;28;20104;-71
2022/05/03 10:57:03;;;;;;;0.00;0.00;;;19.20;66.80;;;;;;4163738;28;20120;-75
2022/05/03 10:59:48;;;;;;;0.00;0.00;;;19.30;66.30;;;;;;4165989;28;20065;-73
2022/05/03 11:02:13;;;;;;;0.00;0.00;;;19.40;65.20;;;;;;4166216;28;20092;-73
2022/05/03 11:04:57;;;;;;;0.00;0.00;;;19.40;65.50;;;;;;4152284;28;20758;-71
2022/05/03 11:07:24;;;;;;;0.00;0.00;;;19.40;66.20;;;;;;4152359;28;20049;-72
2022/05/03 11:09:46;;;;;;;0.00;0.00;;;19.30;65.70;;;;;;4152426;28;20045;-72
2022/05/03 11:12:11;;;;;;;0.00;0.00;;;19.20;66.00;;;;;;4153025;28;20111;-73
2022/05/03 11:14:35;;;;;;;0.00;0.00;;;19.10;65.60;;;;;;4152467;28;20061;-73
2022/05/03 11:17:08;;;;;;;0.00;0.00;;;19.10;65.30;;;;;;4138645;28;20054;-72
2022/05/03 11:19:39;;;;;;;0.00;0.00;;;19.30;65.10;;;;;;4132724;28;20054;-73
2022/05/03 11:22:02;;;;;;;0.00;0.00;;;19.10;64.80;;;;;;4138643;28;20468;-72
2022/05/03 11:24:32;;;;;;;0.00;0.00;;;19.10;65.40;;;;;;4137945;28;20097;-72
2022/05/03 11:27:05;;;;;;;0.00;0.00;;;19.10;65.50;;;;;;4152165;28;20100;-71
2022/05/03 11:29:32;;;;;;;0.00;0.00;;;19.10;65.90;;;;;;4138359;28;20296;-71
2022/05/03 11:31:55;;;;;;;0.00;0.00;;;19.40;65.70;;;;;;4138279;28;20055;-70
2022/05/03 11:34:18;;;;;;;0.00;0.00;;;19.70;64.50;;;;;;4144087;28;20088;-70
2022/05/03 11:36:44;;;;;;;0.00;0.00;;;19.80;63.50;;;;;;4137150;28;20058;-71
2022/05/03 11:39:09;;;;;;;0.00;0.00;;;19.80;63.00;;;;;;4137881;28;20058;-73
2022/05/03 11:41:36;;;;;;;0.00;0.00;;;19.60;62.80;;;;;;4145876;28;20100;-70
2022/05/03 11:43:58;;;;;;;0.00;0.00;;;19.40;63.00;;;;;;4138030;28;20401;-73
2022/05/03 11:46:25;;;;;;;0.00;0.00;;;19.40;63.70;;;;;;4151444;28;20045;-70
2022/05/03 11:48:59;;;;;;;0.00;0.00;;;19.50;63.40;;;;;;4151586;28;20076;-72
2022/05/03 11:56:47;;;;;;;0.00;0.00;;;19.30;63.30;;;;;;4151179;28;20046;-74
2022/05/03 11:59:12;;;;;;;0.00;0.00;;;19.50;63.70;;;;;;4124186;28;20429;-72
2022/05/03 12:01:34;;;;;;;0.00;0.00;;;19.70;62.90;;;;;;4150972;28;20145;-72
2022/05/03 12:03:59;;;;;;;0.00;0.00;;;19.80;62.60;;;;;;4138045;28;20062;-71
2022/05/03 12:06:21;;;;;;;0.00;0.00;;;19.80;62.60;;;;;;4151107;28;20485;-72
2022/05/03 12:08:48;;;;;;;0.00;0.00;;;19.80;63.30;;;;;;4151133;28;20511;-72
2022/05/03 12:11:24;;;;;;;0.00;0.00;;;19.80;63.00;;;;;;4137536;28;20100;-73
2022/05/03 12:13:46;;;;;;;0.00;0.00;;;19.80;62.60;;;;;;4151322;28;20042;-72
2022/05/03 12:16:15;;;;;;;0.00;0.00;;;19.80;63.30;;;;;;4151007;28;20056;-70
2022/05/03 12:18:40;;;;;;;0.00;0.00;;;19.70;63.60;;;;;;4151030;28;20056;-74
2022/05/03 12:21:30;;;;;;;0.00;0.00;;;19.70;63.30;;;;;;4151146;28;20045;-72
2022/05/03 12:24:02;;;;;;;0.00;0.00;;;19.80;62.60;;;;;;4150964;28;20093;-73
2022/05/03 12:26:27;;;;;;;0.00;0.00;;;19.70;63.30;;;;;;4151157;28;20048;-72
2022/05/03 12:28:56;;;;;;;0.00;0.00;;;19.60;63.80;;;;;;4151014;28;20373;-71
2022/05/03 12:31:19;;;;;;;0.00;0.00;;;19.50;63.90;;;;;;4137340;28;20820;-73
2022/05/03 12:33:53;;;;;;;0.00;0.00;;;19.70;63.40;;;;;;4164356;28;20030;-71
2022/05/03 12:36:37;;;;;;;0.00;0.00;;;19.90;62.80;;;;;;4150760;28;20045;-71
2022/05/03 12:39:30;;;;;;;0.00;0.00;;;19.80;63.70;;;;;;4137354;28;20054;-71
2022/05/03 12:42:02;;;;;;;0.00;0.00;;;19.90;64.20;;;;;;4137377;28;20089;-71
2022/05/03 12:44:25;;;;;;;0.00;0.00;;;19.90;64.40;;;;;;4137160;28;20046;-72
2022/05/03 12:46:49;;;;;;;0.00;0.00;;;19.90;63.30;;;;;;4123398;28;20061;-71
2022/05/03 12:49:13;;;;;;;0.00;0.00;;;20.00;64.20;;;;;;4150947;28;20503;-70
2022/05/03 12:51:36;;;;;;;0.00;0.00;;;20.00;65.30;;;;;;4150940;28;20504;-72
2022/05/03 12:54:03;;;;;;;0.00;0.00;;;19.90;64.10;;;;;;4150903;28;20058;-72
2022/05/03 12:59:11;;;;;;;0.00;0.00;;;19.60;61.70;;;;;;4150680;28;20050;-72
2022/05/03 13:01:39;;;;;;;0.00;0.00;;;19.40;60.80;;;;;;4136876;28;20321;-72
2022/05/03 13:04:01;;;;;;;0.00;0.00;;;19.40;60.70;;;;;;4150835;28;20054;-71
2022/05/03 13:06:23;;;;;;;0.00;0.00;;;19.40;61.60;;;;;;4137374;28;20054;-72
2022/05/03 13:08:50;;;;;;;0.00;0.00;;;19.40;61.20;;;;;;4164230;28;20049;-74
2022/05/03 13:11:13;;;;;;;0.00;0.00;;;19.40;57.90;;;;;;4137191;28;20050;-70
2022/05/03 13:13:38;;;;;;;0.00;0.00;;;19.30;56.90;;;;;;4139276;28;20556;-71
2022/05/03 13:16:03;;;;;;;0.00;0.00;;;19.10;56.80;;;;;;4153869;28;20037;-70
2022/05/03 13:18:27;;;;;;;0.00;0.00;;;19.10;55.90;;;;;;4153882;28;20046;-72
2022/05/03 13:20:50;;;;;;;0.00;0.00;;;19.20;56.30;;;;;;4140152;28;20054;-72
2022/05/03 13:23:12;;;;;;;0.00;0.00;;;19.30;55.20;;;;;;4126734;28;20762;-73
2022/05/03 13:25:35;;;;;;;0.00;0.00;;;19.40;53.00;;;;;;4153971;28;20159;-74
2022/05/03 13:27:57;;;;;;;0.00;0.00;;;19.30;52.00;;;;;;4167526;28;20123;-71
2022/05/03 13:30:24;;;;;;;0.00;0.00;;;19.30;54.00;;;;;;4153513;28;20388;-73